Time,TemperatureF,DewpointF,PressureIn,WindDirection,WindDirectionDegrees,WindSpeedMPH,WindSpeedGustMPH,Humidity,HourlyPrecipIn,Conditions,Clouds,dailyrainin,SolarRadiationWatts/m^2,SoftwareType,DateUTC
2013-02-23 00:00:00,20.9,18.2,29.87,West,274,0.0,1.0,89,0.00,,---,0.09,0.00,VWS V14.01,2013-02-23 06:00:00,
2013-02-23 00:10:00,20.7,18.0,29.87,West,274,2.0,2.0,89,0.00,,---,0.00,0.00,VWS V14.01,2013-02-23 06:10:00,
2013-02-23 00:15:00,20.7,18.0,29.87,West,273,1.0,3.0,89,0.00,,---,0.00,0.00,VWS V14.01,2013-02-23 06:15:00,
2013-02-23 00:20:00,20.6,17.9,29.87,West,273,2.0,2.0,89,0.00,,---,0.00,0.00,VWS V14.01,2013-02-23 06:20:00,
2013-02-23 00:25:00,20.5,17.8,29.87,West,273,1.0,2.0,89,0.00,,---,0.00,0.00,VWS V14.01,2013-02-23 06:25:00,
2013-02-23 00:35:00,20.4,17.9,29.87,West,274,0.0,2.0,90,0.00,,---,0.00,0.00,VWS V14.01,2013-02-23 06:35:00,
2013-02-23 00:40:00,20.3,17.8,29.87,West,273,0.0,0.0,90,0.00,,---,0.00,0.00,VWS V14.01,2013-02-23 06:40:00,
2013-02-23 00:45:00,20.2,17.7,29.87,West,274,0.0,0.0,90,0.00,,---,0.00,0.00,VWS V14.01,2013-02-23 06:45:00,
2013-02-23 00:50:00,20.0,17.5,29.87,West,274,0.0,0.0,90,0.00,,---,0.00,0.00,VWS V14.01,2013-02-23 06:50:00,
2013-02-23 01:00:00,19.7,17.2,29.87,West,274,0.0,0.0,90,0.00,,---,0.00,0.00,VWS V14.01,2013-02-23 07:00:00,
2013-02-23 01:10:00,19.3,16.9,29.87,West,274,1.0,2.0,90,0.00,,---,0.00,0.00,VWS V14.01,2013-02-23 07:10:00,
2013-02-23 01:15:00,19.2,16.8,29.86,West,273,0.0,1.0,90,0.00,,---,0.00,0.00,VWS V14.01,2013-02-23 07:15:00,
2013-02-23 01:20:00,19.1,16.7,29.86,West,273,0.0,2.0,90,0.00,,---,0.00,0.00,VWS V14.01,2013-02-23 07:20:00,
2013-02-23 01:25:00,19.1,16.7,29.86,West,273,0.0,1.0,90,0.00,,---,0.00,0.00,VWS V14.01,2013-02-23 07:25:00,
2013-02-23 01:35:00,18.9,16.5,29.86,West,274,0.0,3.0,90,0.00,,---,0.00,0.00,VWS V14.01,2013-02-23 07:35:00,
2013-02-23 01:40:00,18.7,16.3,29.86,West,273,1.0,2.0,90,0.00,,---,0.00,0.00,VWS V14.01,2013-02-23 07:40:00,
2013-02-23 01:45:00,18.6,16.4,29.86,West,273,1.0,2.0,91,0.00,,---,0.00,0.00,VWS V14.01,2013-02-23 07:45:00,
2013-02-23 01:55:00,18.5,16.3,29.86,West,273,1.0,2.0,91,0.00,,---,0.00,0.00,VWS V14.01,2013-02-23 07:55:00,
2013-02-23 02:00:00,18.5,16.3,29.86,West,274,2.0,3.0,91,0.00,,---,0.00,0.00,VWS V14.01,2013-02-23 08:00:00,
2013-02-23 02:05:00,18.6,16.4,29.86,West,274,2.0,3.0,91,0.00,,---,0.00,0.00,VWS V14.01,2013-02-23 08:05:00,
2013-02-23 02:10:00,18.7,16.5,29.86,West,271,0.0,3.0,91,0.00,,---,0.00,0.00,VWS V14.01,2013-02-23 08:10:00,
2013-02-23 02:20:00,19.0,16.8,29.86,West,267,1.0,3.0,91,0.00,,---,0.00,0.00,VWS V14.01,2013-02-23 08:20:00,
2013-02-23 02:30:00,19.3,17.1,29.86,West,267,0.0,3.0,91,0.00,,---,0.00,0.00,VWS V14.01,2013-02-23 08:30:00,
2013-02-23 02:35:00,19.4,17.2,29.86,West,267,0.0,0.0,91,0.00,,---,0.00,0.00,VWS V14.01,2013-02-23 08:35:00,
2013-02-23 02:45:00,19.7,17.5,29.86,West,261,3.0,4.0,91,0.00,,---,0.00,0.00,VWS V14.01,2013-02-23 08:45:00,
2013-02-23 02:50:00,19.7,17.5,29.86,West,261,1.0,3.0,91,0.00,,---,0.00,0.00,VWS V14.01,2013-02-23 08:50:00,
2013-02-23 02:55:00,19.7,17.5,29.86,West,261,1.0,3.0,91,0.00,,---,0.00,0.00,VWS V14.01,2013-02-23 08:55:00,
2013-02-23 03:00:00,19.8,17.6,29.85,West,261,1.0,3.0,91,0.00,,---,0.00,0.00,VWS V14.01,2013-02-23 09:00:00,
2013-02-23 03:05:00,19.9,17.7,29.86,WSW,246,1.0,4.0,91,0.00,,---,0.00,0.00,VWS V14.01,2013-02-23 09:05:00,
2013-02-23 03:10:00,20.0,17.8,29.85,WSW,245,4.0,4.0,91,0.00,,---,0.00,0.00,VWS V14.01,2013-02-23 09:10:00,
2013-02-23 03:15:00,20.2,18.0,29.86,WSW,244,3.0,4.0,91,0.00,,---,0.00,0.00,VWS V14.01,2013-02-23 09:15:00,
2013-02-23 03:20:00,20.2,18.0,29.86,WSW,242,2.0,4.0,91,0.00,,---,0.00,0.00,VWS V14.01,2013-02-23 09:20:00,
2013-02-23 03:25:00,20.3,18.1,29.86,WSW,238,4.0,6.0,91,0.00,,---,0.00,0.00,VWS V14.01,2013-02-23 09:25:00,
2013-02-23 03:35:00,20.4,18.2,29.86,SW,227,3.0,5.0,91,0.00,,---,0.00,0.00,VWS V14.01,2013-02-23 09:35:00,
2013-02-23 03:40:00,20.4,18.2,29.85,SW,222,2.0,6.0,91,0.00,,---,0.00,0.00,VWS V14.01,2013-02-23 09:40:00,
2013-02-23 03:45:00,20.4,17.9,29.85,SW,233,3.0,6.0,90,0.00,,---,0.00,0.00,VWS V14.01,2013-02-23 09:45:00,
2013-02-23 03:50:00,20.4,17.9,29.85,SW,223,3.0,7.0,90,0.00,,---,0.00,0.00,VWS V14.01,2013-02-23 09:50:00,
2013-02-23 04:00:00,20.4,17.9,29.85,SW,223,3.0,3.0,90,0.00,,---,0.00,0.00,VWS V14.01,2013-02-23 10:00:00,
2013-02-23 04:05:00,20.4,17.9,29.85,SW,223,2.0,5.0,90,0.00,,---,0.00,0.00,VWS V14.01,2013-02-23 10:05:00,
2013-02-23 04:10:00,20.4,17.9,29.85,SW,223,0.0,4.0,90,0.00,,---,0.00,0.00,VWS V14.01,2013-02-23 10:10:00,
2013-02-23 04:20:00,20.5,18.0,29.85,SW,227,5.0,7.0,90,0.00,,---,0.00,0.00,VWS V14.01,2013-02-23 10:20:00,
2013-02-23 04:25:00,20.6,18.1,29.85,SW,229,2.0,6.0,90,0.00,,---,0.00,0.00,VWS V14.01,2013-02-23 10:25:00,
2013-02-23 04:30:00,20.6,18.1,29.85,SW,229,1.0,5.0,90,0.00,,---,0.00,0.00,VWS V14.01,2013-02-23 10:30:00,
2013-02-23 04:35:00,20.7,18.2,29.85,SW,229,1.0,3.0,90,0.00,,---,0.00,0.00,VWS V14.01,2013-02-23 10:35:00,
2013-02-23 04:45:00,20.8,18.3,29.86,SW,230,0.0,6.0,90,0.00,,---,0.00,0.00,VWS V14.01,2013-02-23 10:45:00,
2013-02-23 04:50:00,20.8,18.3,29.86,WSW,248,4.0,9.0,90,0.00,,---,0.00,0.00,VWS V14.01,2013-02-23 10:50:00,
2013-02-23 05:00:00,20.8,18.1,29.86,SW,223,0.0,9.0,89,0.00,,---,0.00,0.00,VWS V14.01,2013-02-23 11:00:00,
2013-02-23 05:05:00,20.8,18.3,29.86,SW,223,3.0,5.0,90,0.00,,---,0.00,0.00,VWS V14.01,2013-02-23 11:05:00,
2013-02-23 05:10:00,20.8,18.1,29.85,WSW,238,6.0,6.0,89,0.00,,---,0.00,0.00,VWS V14.01,2013-02-23 11:10:00,
2013-02-23 05:15:00,20.7,18.0,29.86,WSW,241,1.0,7.0,89,0.00,,---,0.00,0.00,VWS V14.01,2013-02-23 11:15:00,
2013-02-23 05:20:00,20.7,18.0,29.86,WSW,241,0.0,3.0,89,0.00,,---,0.00,0.00,VWS V14.01,2013-02-23 11:20:00,
2013-02-23 05:25:00,20.7,18.0,29.86,WSW,246,4.0,7.0,89,0.00,,---,0.00,0.00,VWS V14.01,2013-02-23 11:25:00,
2013-02-23 05:35:00,20.7,18.0,29.86,WSW,251,2.0,10.0,89,0.00,,---,0.00,0.00,VWS V14.01,2013-02-23 11:35:00,
2013-02-23 05:45:00,20.5,17.8,29.86,WSW,250,5.0,9.0,89,0.00,,---,0.00,0.00,VWS V14.01,2013-02-23 11:45:00,
2013-02-23 05:55:00,20.5,17.8,29.86,SW,232,5.0,5.0,89,0.00,,---,0.00,0.00,VWS V14.01,2013-02-23 11:55:00,
2013-02-23 06:00:00,20.5,17.8,29.86,SW,234,2.0,6.0,89,0.00,,---,0.00,0.00,VWS V14.01,2013-02-23 12:00:00,
2013-02-23 06:05:00,20.5,17.8,29.86,WSW,238,2.0,5.0,89,0.00,,---,0.00,0.00,VWS V14.01,2013-02-23 12:05:00,
2013-02-23 06:15:00,20.4,17.7,29.87,SW,223,3.0,5.0,89,0.00,,---,0.00,0.00,VWS V14.01,2013-02-23 12:15:00,
2013-02-23 06:20:00,20.4,17.7,29.87,SW,229,4.0,6.0,89,0.00,,---,0.00,0.00,VWS V14.01,2013-02-23 12:20:00,
2013-02-23 06:25:00,20.4,17.7,29.87,SW,229,3.0,4.0,89,0.00,,---,0.00,0.00,VWS V14.01,2013-02-23 12:25:00,
2013-02-23 06:30:00,20.4,17.7,29.87,SW,216,0.0,5.0,89,0.00,,---,0.00,0.00,VWS V14.01,2013-02-23 12:30:00,
2013-02-23 06:35:00,20.4,17.7,29.87,SW,233,0.0,6.0,89,0.00,,---,0.00,0.00,VWS V14.01,2013-02-23 12:35:00,
2013-02-23 06:40:00,20.4,17.7,29.87,SW,234,1.0,4.0,89,0.00,,---,0.00,0.00,VWS V14.01,2013-02-23 12:40:00,
2013-02-23 06:45:00,20.4,17.7,29.87,SW,234,0.0,3.0,89,0.00,,---,0.00,0.00,VWS V14.01,2013-02-23 12:45:00,
2013-02-23 06:50:00,20.4,17.7,29.87,SW,236,6.0,6.0,89,0.00,,---,0.00,0.00,VWS V14.01,2013-02-23 12:50:00,
2013-02-23 06:55:00,20.4,17.7,29.87,WSW,238,0.0,6.0,89,0.00,,---,0.00,0.00,VWS V14.01,2013-02-23 12:55:00,
2013-02-23 07:05:00,20.5,17.8,29.87,WSW,238,0.0,2.0,89,0.00,,---,0.00,0.00,VWS V14.01,2013-02-23 13:05:00,
2013-02-23 07:15:00,20.5,17.8,29.87,WSW,238,0.0,2.0,89,0.00,,---,0.00,5.00,VWS V14.01,2013-02-23 13:15:00,
2013-02-23 07:25:00,20.6,17.9,29.87,WSW,238,0.0,4.0,89,0.00,,---,0.00,9.00,VWS V14.01,2013-02-23 13:25:00,
2013-02-23 07:30:00,20.6,17.9,29.87,WSW,238,5.0,5.0,89,0.00,,---,0.00,11.00,VWS V14.01,2013-02-23 13:30:00,
2013-02-23 07:40:00,20.7,18.0,29.87,WSW,238,1.0,2.0,89,0.00,,---,0.00,14.00,VWS V14.01,2013-02-23 13:40:00,
2013-02-23 07:50:00,20.9,18.2,29.87,SW,236,0.0,5.0,89,0.00,,---,0.00,21.00,VWS V14.01,2013-02-23 13:50:00,
2013-02-23 07:55:00,21.0,18.3,29.87,SW,234,0.0,4.0,89,0.00,,---,0.00,23.00,VWS V14.01,2013-02-23 13:55:00,
2013-02-23 08:00:00,21.1,18.4,29.87,SW,230,4.0,5.0,89,0.00,,---,0.00,33.00,VWS V14.01,2013-02-23 14:00:00,
2013-02-23 08:10:00,21.3,18.6,29.87,SW,230,3.0,5.0,89,0.00,,---,0.00,53.00,VWS V14.01,2013-02-23 14:10:00,
2013-02-23 08:15:00,21.4,18.7,29.87,WSW,238,0.0,6.0,89,0.00,,---,0.00,63.00,VWS V14.01,2013-02-23 14:15:00,
2013-02-23 08:20:00,21.5,19.0,29.87,WSW,247,4.0,7.0,90,0.00,,---,0.00,67.00,VWS V14.01,2013-02-23 14:20:00,
2013-02-23 08:30:00,21.8,19.3,29.87,SW,233,2.0,5.0,90,0.00,,---,0.00,67.00,VWS V14.01,2013-02-23 14:30:00,
2013-02-23 08:35:00,22.1,19.6,29.88,SW,233,2.0,2.0,90,0.00,,---,0.00,63.00,VWS V14.01,2013-02-23 14:35:00,
2013-02-23 08:40:00,22.2,19.7,29.87,SW,232,1.0,5.0,90,0.00,,---,0.00,72.00,VWS V14.01,2013-02-23 14:40:00,
2013-02-23 08:50:00,22.5,20.0,29.87,SW,232,0.0,2.0,90,0.00,,---,0.00,79.00,VWS V14.01,2013-02-23 14:50:00,
2013-02-23 08:55:00,22.7,20.2,29.87,SW,233,1.0,4.0,90,0.00,,---,0.00,81.00,VWS V14.01,2013-02-23 14:55:00,
2013-02-23 09:00:00,22.9,20.4,29.87,SW,235,1.0,7.0,90,0.00,,---,0.00,79.00,VWS V14.01,2013-02-23 15:00:00,
2013-02-23 09:05:00,23.0,20.2,29.87,SW,234,3.0,3.0,89,0.00,,---,0.00,93.00,VWS V14.01,2013-02-23 15:05:00,
2013-02-23 09:15:00,23.4,20.9,29.87,SW,235,0.0,2.0,90,0.00,,---,0.00,120.00,VWS V14.01,2013-02-23 15:15:00,
2013-02-23 09:25:00,24.1,21.3,29.87,SW,236,1.0,4.0,89,0.00,,---,0.00,162.00,VWS V14.01,2013-02-23 15:25:00,
2013-02-23 09:30:00,24.3,21.5,29.87,SW,236,0.0,2.0,89,0.00,,---,0.00,190.00,VWS V14.01,2013-02-23 15:30:00,
2013-02-23 09:35:00,24.7,21.9,29.87,SW,236,2.0,3.0,89,0.00,,---,0.00,216.00,VWS V14.01,2013-02-23 15:35:00,
2013-02-23 09:45:00,25.3,22.2,29.87,NNW,327,3.0,3.0,88,0.00,,---,0.00,232.00,VWS V14.01,2013-02-23 15:45:00,
2013-02-23 09:50:00,25.8,22.7,29.87,NW,319,0.0,3.0,88,0.00,,---,0.00,246.00,VWS V14.01,2013-02-23 15:50:00,
2013-02-23 10:00:00,26.4,23.1,29.87,WNW,288,2.0,4.0,87,0.00,,---,0.00,278.00,VWS V14.01,2013-02-23 16:00:00,
2013-02-23 10:05:00,26.6,23.0,29.86,WSW,247,1.0,4.0,86,0.00,,---,0.00,279.00,VWS V14.01,2013-02-23 16:05:00,
2013-02-23 10:10:00,27.0,23.1,29.86,West,279,3.0,4.0,85,0.00,,---,0.00,299.00,VWS V14.01,2013-02-23 16:10:00,
2013-02-23 10:15:00,27.2,23.3,29.86,WNW,290,0.0,4.0,85,0.00,,---,0.00,329.00,VWS V14.01,2013-02-23 16:15:00,
2013-02-23 10:20:00,27.6,23.4,29.86,WNW,290,3.0,4.0,84,0.00,,---,0.00,338.00,VWS V14.01,2013-02-23 16:20:00,
2013-02-23 10:30:00,27.9,23.4,29.87,West,271,1.0,6.0,83,0.00,,---,0.00,338.00,VWS V14.01,2013-02-23 16:30:00,
2013-02-23 10:35:00,28.1,23.6,29.86,WSW,248,1.0,5.0,83,0.00,,---,0.00,330.00,VWS V14.01,2013-02-23 16:35:00,
2013-02-23 10:40:00,28.4,23.9,29.86,WNW,285,0.0,4.0,83,0.00,,---,0.00,329.00,VWS V14.01,2013-02-23 16:40:00,
2013-02-23 10:45:00,28.4,23.3,29.87,WSW,244,2.0,6.0,81,0.00,,---,0.00,320.00,VWS V14.01,2013-02-23 16:45:00,
2013-02-23 10:50:00,28.7,23.6,29.86,West,260,1.0,4.0,81,0.00,,---,0.00,338.00,VWS V14.01,2013-02-23 16:50:00,
2013-02-23 11:00:00,29.2,23.8,29.87,WSW,254,1.0,4.0,80,0.00,,---,0.00,422.00,VWS V14.01,2013-02-23 17:00:00,
2013-02-23 11:05:00,29.2,23.5,29.87,WSW,242,2.0,4.0,79,0.00,,---,0.00,410.00,VWS V14.01,2013-02-23 17:05:00,
2013-02-23 11:10:00,29.4,23.7,29.86,WSW,242,0.0,4.0,79,0.00,,---,0.00,578.00,VWS V14.01,2013-02-23 17:10:00,
2013-02-23 11:15:00,29.8,24.4,29.87,NW,321,4.0,5.0,80,0.01,,---,0.01,359.00,VWS V14.01,2013-02-23 17:15:00,
2013-02-23 11:20:00,29.7,24.0,29.86,NW,320,2.0,6.0,79,0.01,,---,0.01,345.00,VWS V14.01,2013-02-23 17:20:00,
2013-02-23 11:25:00,29.7,24.0,29.86,NW,319,3.0,3.0,79,0.01,,---,0.01,408.00,VWS V14.01,2013-02-23 17:25:00,
2013-02-23 11:30:00,30.1,24.4,29.86,NW,322,2.0,4.0,79,0.01,,---,0.01,671.00,VWS V14.01,2013-02-23 17:30:00,
2013-02-23 11:35:00,30.9,25.2,29.86,NW,322,0.0,5.0,79,0.01,,---,0.01,459.00,VWS V14.01,2013-02-23 17:35:00,
2013-02-23 11:40:00,31.5,25.1,29.86,WNW,283,1.0,3.0,77,0.01,,---,0.01,496.00,VWS V14.01,2013-02-23 17:40:00,
2013-02-23 11:45:00,31.9,25.2,29.86,WNW,294,0.0,6.0,76,0.01,,---,0.01,756.00,VWS V14.01,2013-02-23 17:45:00,
2013-02-23 11:50:00,31.8,24.5,29.86,WSW,254,1.0,7.0,74,0.01,,---,0.01,434.00,VWS V14.01,2013-02-23 17:50:00,
2013-02-23 12:00:00,32.0,25.0,29.86,WSW,248,2.0,7.0,75,0.01,,---,0.01,512.00,VWS V14.01,2013-02-23 18:00:00,
2013-02-23 12:10:00,32.9,25.5,29.85,WSW,246,2.0,3.0,74,0.01,,---,0.01,664.00,VWS V14.01,2013-02-23 18:10:00,
2013-02-23 12:15:00,33.2,25.2,29.86,WSW,253,1.0,7.0,72,0.01,,---,0.01,475.00,VWS V14.01,2013-02-23 18:15:00,
2013-02-23 12:20:00,32.9,25.2,29.86,WSW,248,0.0,4.0,73,0.00,,---,0.01,439.00,VWS V14.01,2013-02-23 18:20:00,
2013-02-23 12:25:00,32.5,25.1,29.86,WSW,242,3.0,5.0,74,0.00,,---,0.01,529.00,VWS V14.01,2013-02-23 18:25:00,
2013-02-23 12:30:00,32.9,25.9,29.85,WSW,241,0.0,5.0,75,0.00,,---,0.01,584.00,VWS V14.01,2013-02-23 18:30:00,
2013-02-23 12:35:00,33.3,25.6,29.85,SW,236,4.0,7.0,73,0.00,,---,0.01,621.00,VWS V14.01,2013-02-23 18:35:00,
2013-02-23 12:40:00,33.0,25.0,29.85,SW,232,3.0,5.0,72,0.00,,---,0.01,598.00,VWS V14.01,2013-02-23 18:40:00,
2013-02-23 12:50:00,31.1,23.8,29.85,SW,235,2.0,6.0,74,0.00,,---,0.01,381.00,VWS V14.01,2013-02-23 18:50:00,
2013-02-23 12:55:00,31.0,23.7,29.85,SW,236,2.0,10.0,74,0.00,,---,0.01,603.00,VWS V14.01,2013-02-23 18:55:00,
2013-02-23 13:00:00,30.4,23.4,29.86,SW,221,6.0,11.0,75,0.00,,---,0.01,779.00,VWS V14.01,2013-02-23 19:00:00,
2013-02-23 13:10:00,30.2,23.6,29.85,SW,233,5.0,9.0,76,0.00,,---,0.01,749.00,VWS V14.01,2013-02-23 19:10:00,
2013-02-23 13:15:00,30.1,23.5,29.85,SSW,209,9.0,11.0,76,0.00,,---,0.01,793.00,VWS V14.01,2013-02-23 19:15:00,
2013-02-23 13:20:00,30.3,24.0,29.85,SW,233,1.0,12.0,77,0.00,,---,0.01,837.00,VWS V14.01,2013-02-23 19:20:00,
2013-02-23 13:25:00,31.4,24.7,29.85,SW,230,6.0,9.0,76,0.00,,---,0.01,838.00,VWS V14.01,2013-02-23 19:25:00,
2013-02-23 13:30:00,31.4,24.1,29.85,WSW,237,1.0,11.0,74,0.00,,---,0.01,858.00,VWS V14.01,2013-02-23 19:30:00,
2013-02-23 13:40:00,31.7,24.0,29.85,WSW,241,6.0,11.0,73,0.00,,---,0.01,561.00,VWS V14.01,2013-02-23 19:40:00,
2013-02-23 13:45:00,31.5,23.5,29.85,SW,225,0.0,11.0,72,0.00,,---,0.01,392.00,VWS V14.01,2013-02-23 19:45:00,
2013-02-23 13:55:00,31.5,24.2,29.85,SW,236,1.0,11.0,74,0.00,,---,0.01,325.00,VWS V14.01,2013-02-23 19:55:00,
2013-02-23 14:00:00,31.7,24.4,29.85,SW,234,8.0,8.0,74,0.00,,---,0.01,390.00,VWS V14.01,2013-02-23 20:00:00,
2013-02-23 14:05:00,31.9,24.2,29.84,WSW,240,5.0,8.0,73,0.00,,---,0.01,422.00,VWS V14.01,2013-02-23 20:05:00,
2013-02-23 14:10:00,32.3,25.0,29.84,SW,230,5.0,11.0,74,0.00,,---,0.01,359.00,VWS V14.01,2013-02-23 20:10:00,
2013-02-23 14:15:00,32.3,24.6,29.85,SW,228,0.0,7.0,73,0.00,,---,0.01,311.00,VWS V14.01,2013-02-23 20:15:00,
2013-02-23 14:20:00,32.3,24.3,29.85,WSW,250,3.0,8.0,72,0.00,,---,0.01,290.00,VWS V14.01,2013-02-23 20:20:00,
2013-02-23 14:30:00,31.6,24.0,29.85,SW,221,2.0,7.0,73,0.00,,---,0.01,232.00,VWS V14.01,2013-02-23 20:30:00,
2013-02-23 14:35:00,31.7,24.0,29.85,WSW,242,1.0,5.0,73,0.00,,---,0.01,211.00,VWS V14.01,2013-02-23 20:35:00,
2013-02-23 14:45:00,31.2,23.6,29.85,SW,230,4.0,10.0,73,0.00,,---,0.01,174.00,VWS V14.01,2013-02-23 20:45:00,
2013-02-23 14:50:00,31.0,23.4,29.85,SW,229,7.0,10.0,73,0.00,,---,0.01,156.00,VWS V14.01,2013-02-23 20:50:00,
2013-02-23 14:55:00,30.8,23.5,29.85,SSW,213,6.0,9.0,74,0.00,,---,0.01,146.00,VWS V14.01,2013-02-23 20:55:00,
2013-02-23 15:05:00,31.0,23.7,29.85,SW,231,6.0,10.0,74,0.00,,---,0.01,149.00,VWS V14.01,2013-02-23 21:05:00,
2013-02-23 15:10:00,30.8,23.5,29.85,SW,234,3.0,10.0,74,0.00,,---,0.01,153.00,VWS V14.01,2013-02-23 21:10:00,
2013-02-23 15:20:00,31.0,23.7,29.85,SW,236,4.0,9.0,74,0.00,,---,0.01,137.00,VWS V14.01,2013-02-23 21:20:00,
2013-02-23 15:25:00,31.0,23.7,29.85,SW,234,7.0,9.0,74,0.00,,---,0.01,130.00,VWS V14.01,2013-02-23 21:25:00,
2013-02-23 15:35:00,30.8,23.2,29.85,SW,232,2.0,9.0,73,0.00,,---,0.01,128.00,VWS V14.01,2013-02-23 21:35:00,
2013-02-23 15:40:00,30.8,23.5,29.85,SW,218,6.0,9.0,74,0.00,,---,0.01,132.00,VWS V14.01,2013-02-23 21:40:00,
2013-02-23 15:45:00,30.8,23.5,29.85,SW,234,3.0,8.0,74,0.00,,---,0.01,120.00,VWS V14.01,2013-02-23 21:45:00,
2013-02-23 15:50:00,30.8,23.5,29.85,WSW,238,3.0,5.0,74,0.00,,---,0.01,109.00,VWS V14.01,2013-02-23 21:50:00,
2013-02-23 15:55:00,30.8,23.5,29.85,SW,229,5.0,9.0,74,0.00,,---,0.01,102.00,VWS V14.01,2013-02-23 21:55:00,
2013-02-23 16:00:00,30.7,23.4,29.85,SW,214,0.0,8.0,74,0.00,,---,0.01,95.00,VWS V14.01,2013-02-23 22:00:00,
2013-02-23 16:10:00,31.0,24.0,29.86,SW,227,4.0,5.0,75,0.00,,---,0.01,98.00,VWS V14.01,2013-02-23 22:10:00,
2013-02-23 16:15:00,30.9,23.3,29.86,SW,215,5.0,6.0,73,0.00,,---,0.01,95.00,VWS V14.01,2013-02-23 22:15:00,
2013-02-23 16:25:00,30.9,23.6,29.86,WSW,250,2.0,6.0,74,0.00,,---,0.01,79.00,VWS V14.01,2013-02-23 22:25:00,
2013-02-23 16:30:00,30.8,23.5,29.86,WSW,241,2.0,7.0,74,0.00,,---,0.01,74.00,VWS V14.01,2013-02-23 22:30:00,
2013-02-23 16:35:00,30.7,23.7,29.86,WSW,254,1.0,6.0,75,0.00,,---,0.01,72.00,VWS V14.01,2013-02-23 22:35:00,
2013-02-23 16:40:00,30.6,23.6,29.86,WSW,246,2.0,6.0,75,0.00,,---,0.01,62.00,VWS V14.01,2013-02-23 22:40:00,
2013-02-23 16:45:00,30.5,23.5,29.86,WSW,256,2.0,7.0,75,0.00,,---,0.01,56.00,VWS V14.01,2013-02-23 22:45:00,
2013-02-23 16:50:00,30.1,23.5,29.86,SW,232,1.0,6.0,76,0.00,,---,0.01,49.00,VWS V14.01,2013-02-23 22:50:00,
2013-02-23 16:55:00,29.8,23.2,29.87,WSW,250,0.0,6.0,76,0.00,,---,0.01,42.00,VWS V14.01,2013-02-23 22:55:00,
2013-02-23 17:00:00,29.5,22.9,29.86,WSW,248,0.0,7.0,76,0.00,,---,0.01,37.00,VWS V14.01,2013-02-23 23:00:00,
2013-02-23 17:05:00,29.3,23.0,29.87,WSW,250,6.0,6.0,77,0.00,,---,0.01,30.00,VWS V14.01,2013-02-23 23:05:00,
2013-02-23 17:10:00,29.1,22.8,29.87,SW,227,7.0,7.0,77,0.00,,---,0.01,25.00,VWS V14.01,2013-02-23 23:10:00,
2013-02-23 17:15:00,28.7,22.4,29.87,SW,216,6.0,10.0,77,0.00,,---,0.01,21.00,VWS V14.01,2013-02-23 23:15:00,
2013-02-23 17:25:00,28.2,22.2,29.88,WSW,242,0.0,9.0,78,0.00,,---,0.01,14.00,VWS V14.01,2013-02-23 23:25:00,
2013-02-23 17:35:00,28.0,22.0,29.88,SW,233,6.0,11.0,78,0.00,,---,0.01,9.00,VWS V14.01,2013-02-23 23:35:00,
2013-02-23 17:40:00,27.9,21.9,29.88,SW,232,0.0,12.0,78,0.00,,---,0.01,9.00,VWS V14.01,2013-02-23 23:40:00,
2013-02-23 17:45:00,27.9,21.9,29.88,SW,227,5.0,8.0,78,0.00,,---,0.01,7.00,VWS V14.01,2013-02-23 23:45:00,
2013-02-23 17:55:00,27.7,22.0,29.88,WSW,238,2.0,7.0,79,0.00,,---,0.01,0.00,VWS V14.01,2013-02-23 23:55:00,
2013-02-23 18:00:00,27.7,22.0,29.89,WSW,237,3.0,6.0,79,0.00,,---,0.01,0.00,VWS V14.01,2013-02-24 00:00:00,
2013-02-23 18:05:00,27.6,22.0,29.89,SW,230,4.0,6.0,79,0.00,,---,0.01,0.00,VWS V14.01,2013-02-24 00:05:00,
2013-02-23 18:10:00,27.5,21.9,29.89,SW,227,4.0,11.0,79,0.00,,---,0.01,0.00,VWS V14.01,2013-02-24 00:10:00,
2013-02-23 18:15:00,27.4,21.5,29.89,WSW,240,6.0,10.0,78,0.00,,---,0.01,0.00,VWS V14.01,2013-02-24 00:15:00,
2013-02-23 18:20:00,27.3,21.4,29.90,SW,221,4.0,8.0,78,0.00,,---,0.01,0.00,VWS V14.01,2013-02-24 00:20:00,
2013-02-23 18:30:00,27.1,21.2,29.90,SW,221,8.0,11.0,78,0.00,,---,0.01,0.00,VWS V14.01,2013-02-24 00:30:00,
2013-02-23 18:35:00,26.9,21.0,29.90,SW,224,6.0,11.0,78,0.00,,---,0.01,0.00,VWS V14.01,2013-02-24 00:35:00,
2013-02-23 18:40:00,26.8,20.9,29.90,WSW,244,8.0,8.0,78,0.00,,---,0.01,0.00,VWS V14.01,2013-02-24 00:40:00,
2013-02-23 18:45:00,26.6,20.7,29.91,WSW,254,3.0,8.0,78,0.00,,---,0.01,0.00,VWS V14.01,2013-02-24 00:45:00,
2013-02-23 18:55:00,26.2,20.3,29.91,SW,223,8.0,9.0,78,0.00,,---,0.01,0.00,VWS V14.01,2013-02-24 00:55:00,
2013-02-23 19:05:00,26.1,20.2,29.91,WSW,239,0.0,7.0,78,0.00,,---,0.01,0.00,VWS V14.01,2013-02-24 01:05:00,
2013-02-23 19:10:00,26.0,20.1,29.92,WSW,246,3.0,9.0,78,0.00,,---,0.01,0.00,VWS V14.01,2013-02-24 01:10:00,
2013-02-23 19:15:00,25.9,20.0,29.92,WSW,240,1.0,5.0,78,0.00,,---,0.01,0.00,VWS V14.01,2013-02-24 01:15:00,
2013-02-23 19:25:00,25.6,20.0,29.92,SW,224,2.0,7.0,79,0.00,,---,0.01,0.00,VWS V14.01,2013-02-24 01:25:00,
2013-02-23 19:35:00,25.5,19.9,29.92,SW,227,0.0,5.0,79,0.00,,---,0.01,0.00,VWS V14.01,2013-02-24 01:35:00,
2013-02-23 19:40:00,25.4,19.8,29.92,WSW,238,1.0,5.0,79,0.00,,---,0.01,0.00,VWS V14.01,2013-02-24 01:40:00,
2013-02-23 19:45:00,25.3,19.7,29.92,WSW,238,4.0,5.0,79,0.00,,---,0.01,0.00,VWS V14.01,2013-02-24 01:45:00,
2013-02-23 19:55:00,25.2,19.9,29.92,SW,223,3.0,5.0,80,0.00,,---,0.01,0.00,VWS V14.01,2013-02-24 01:55:00,
2013-02-23 20:00:00,25.1,19.8,29.92,SW,222,3.0,5.0,80,0.00,,---,0.01,0.00,VWS V14.01,2013-02-24 02:00:00,
2013-02-23 20:05:00,25.0,19.7,29.92,SW,227,1.0,5.0,80,0.00,,---,0.01,0.00,VWS V14.01,2013-02-24 02:05:00,
2013-02-23 20:10:00,25.0,19.7,29.92,SW,221,0.0,4.0,80,0.00,,---,0.01,0.00,VWS V14.01,2013-02-24 02:10:00,
2013-02-23 20:15:00,24.8,19.5,29.92,SW,225,0.0,6.0,80,0.00,,---,0.01,0.00,VWS V14.01,2013-02-24 02:15:00,
2013-02-23 20:20:00,24.8,19.5,29.92,SW,227,4.0,5.0,80,0.00,,---,0.01,0.00,VWS V14.01,2013-02-24 02:20:00,
2013-02-23 20:30:00,24.6,19.3,29.92,SW,229,0.0,3.0,80,0.00,,---,0.01,0.00,VWS V14.01,2013-02-24 02:30:00,
2013-02-23 20:40:00,24.3,19.0,29.93,SW,236,5.0,6.0,80,0.00,,---,0.01,0.00,VWS V14.01,2013-02-24 02:40:00,
2013-02-23 20:50:00,24.0,19.0,29.93,SW,232,1.0,6.0,81,0.00,,---,0.01,0.00,VWS V14.01,2013-02-24 02:50:00,
2013-02-23 20:55:00,23.9,18.9,29.93,WSW,241,5.0,5.0,81,0.00,,---,0.01,0.00,VWS V14.01,2013-02-24 02:55:00,
2013-02-23 21:00:00,23.8,18.8,29.93,SW,218,3.0,6.0,81,0.00,,---,0.01,0.00,VWS V14.01,2013-02-24 03:00:00,
2013-02-23 21:10:00,23.6,18.6,29.93,SW,223,1.0,5.0,81,0.00,,---,0.01,0.00,VWS V14.01,2013-02-24 03:10:00,
2013-02-23 21:15:00,23.5,18.5,29.93,SW,226,0.0,5.0,81,0.00,,---,0.01,0.00,VWS V14.01,2013-02-24 03:15:00,
2013-02-23 21:20:00,23.5,18.5,29.93,SW,226,4.0,4.0,81,0.00,,---,0.01,0.00,VWS V14.01,2013-02-24 03:20:00,
2013-02-23 21:30:00,23.5,18.5,29.93,SW,226,2.0,4.0,81,0.00,,---,0.01,0.00,VWS V14.01,2013-02-24 03:30:00,
2013-02-23 21:40:00,23.4,18.4,29.94,SSW,213,3.0,4.0,81,0.00,,---,0.01,0.00,VWS V14.01,2013-02-24 03:40:00,
2013-02-23 21:45:00,23.3,18.3,29.94,SSW,213,4.0,5.0,81,0.00,,---,0.01,0.00,VWS V14.01,2013-02-24 03:45:00,
2013-02-23 21:55:00,23.3,18.3,29.94,SSW,213,1.0,3.0,81,0.00,,---,0.01,0.00,VWS V14.01,2013-02-24 03:55:00,
2013-02-23 22:00:00,23.3,18.3,29.94,SSW,213,3.0,4.0,81,0.00,,---,0.01,0.00,VWS V14.01,2013-02-24 04:00:00,
2013-02-23 22:05:00,23.3,18.3,29.94,SW,214,2.0,5.0,81,0.00,,---,0.01,0.00,VWS V14.01,2013-02-24 04:05:00,
2013-02-23 22:10:00,23.2,18.5,29.94,SW,214,0.0,3.0,82,0.00,,---,0.01,0.00,VWS V14.01,2013-02-24 04:10:00,
2013-02-23 22:15:00,23.3,18.6,29.94,SW,214,0.0,3.0,82,0.00,,---,0.01,0.00,VWS V14.01,2013-02-24 04:15:00,
2013-02-23 22:20:00,23.3,18.6,29.94,SW,214,0.0,0.0,82,0.00,,---,0.01,0.00,VWS V14.01,2013-02-24 04:20:00,
2013-02-23 22:25:00,23.2,18.5,29.94,SW,214,0.0,0.0,82,0.00,,---,0.01,0.00,VWS V14.01,2013-02-24 04:25:00,
2013-02-23 22:30:00,23.2,18.5,29.94,SW,214,0.0,2.0,82,0.00,,---,0.01,0.00,VWS V14.01,2013-02-24 04:30:00,
2013-02-23 22:35:00,23.2,18.5,29.94,SW,214,0.0,0.0,82,0.00,,---,0.01,0.00,VWS V14.01,2013-02-24 04:35:00,
2013-02-23 22:40:00,23.2,18.5,29.95,SW,214,0.0,3.0,82,0.00,,---,0.01,0.00,VWS V14.01,2013-02-24 04:40:00,
2013-02-23 22:45:00,23.2,18.5,29.95,SW,214,3.0,3.0,82,0.00,,---,0.01,0.00,VWS V14.01,2013-02-24 04:45:00,
2013-02-23 22:50:00,23.1,18.4,29.95,SW,214,3.0,4.0,82,0.00,,---,0.01,0.00,VWS V14.01,2013-02-24 04:50:00,
2013-02-23 22:55:00,23.1,18.4,29.95,SW,229,4.0,6.0,82,0.00,,---,0.01,0.00,VWS V14.01,2013-02-24 04:55:00,
2013-02-23 23:00:00,23.0,20.2,29.95,SW,222,6.0,7.0,89,0.00,,---,0.01,0.00,VWS V14.01,2013-02-24 05:00:00,
2013-02-23 23:05:00,22.8,18.1,29.95,SW,231,3.0,6.0,82,0.00,,---,0.01,0.00,VWS V14.01,2013-02-24 05:05:00,
2013-02-23 23:10:00,22.7,18.0,29.95,SW,231,3.0,4.0,82,0.00,,---,0.01,0.00,VWS V14.01,2013-02-24 05:10:00,
2013-02-23 23:15:00,22.5,17.9,29.95,SW,231,2.0,4.0,82,0.00,,---,0.01,0.00,VWS V14.01,2013-02-24 05:15:00,
2013-02-23 23:20:00,22.2,17.5,29.95,SW,230,2.0,4.0,82,0.00,,---,0.01,0.00,VWS V14.01,2013-02-24 05:20:00,
2013-02-23 23:25:00,22.0,17.4,29.95,SW,231,2.0,3.0,82,0.00,,---,0.01,0.00,VWS V14.01,2013-02-24 05:25:00,
2013-02-23 23:35:00,21.5,17.1,29.96,SW,226,2.0,6.0,83,0.00,,---,0.01,0.00,VWS V14.01,2013-02-24 05:35:00,
2013-02-23 23:40:00,21.3,17.0,29.96,SW,226,2.0,5.0,83,0.00,,---,0.01,0.00,VWS V14.01,2013-02-24 05:40:00,
2013-02-23 23:45:00,21.1,16.8,29.96,SW,227,3.0,5.0,83,0.00,,---,0.01,0.00,VWS V14.01,2013-02-24 05:45:00,
2013-02-23 23:50:00,20.9,16.8,29.96,SW,227,5.0,5.0,84,0.00,,---,0.01,0.00,VWS V14.01,2013-02-24 05:50:00,
2013-02-23 23:55:00,20.7,16.6,29.96,SW,232,3.0,6.0,84,0.00,,---,0.01,0.00,VWS V14.01,2013-02-24 05:55:00,